Login to view Products
 
Friday, October 23, 2020 (21:01 UTC)
Abu Dhabi International Airport
Last Updated: 23-Oct-2020 (21:00Z)
Wind Dir/Speed: NW at 04 kt
Temperature: 25.5°C
Rel. Humidity: 87 %
Pressure: 1010.2 hPa
Visibility: 10000 m
ACTUALS:
  • METAR OMAA 232100Z 32003KT CAVOK 26/22 Q1010 NOSIG
  • TAF OMAA 231700Z 2318/2500 03005KT 8000 NSC PROB30 2322/2402 4000 HZ BECMG 2400/2402 10011KT BECMG 2410/2412 36012KT BECMG 2416/2418 06007KT=
D:\Input Parser\Destinations\Final\17\OMAAL1800170083033347.txt
1